Cross Lake Township, Maine
Current Conditions -  °F | °C
As of 11:53 AM on Friday 24 Oct 2014 (Local Time) from KFVE Reporting Station
Light Rain Light Rain  
Wind Chill: 33°   Ceiling: 4800
Heat Index: 40°   Visibility: 6mi
Dew Point: 37°   Wind: 12mph
Humidity: 89%   Direction: 10°N
Pressure: 29.8"   Gusts: NA
Location:  47.1619°N, 68.2532°W
Report Text: KFVE 241553Z AUTO 01010KT 6SM -RA BR OVC048 04/03 A2980 RMK AO2 SLP094 P0004 T00440028
Loading
Personal Weather Stations






























Interactive Weather Map
Tropical Storm Tracking
New forecast layout! Learn more

10-Day Weather Forecast

Advertisements
Track Severe Weather on mobile